地図

経路データ

SID SEASON NUMBER BASIN SUBBASIN NAME ISO_TIME NATURE LAT LON WMO_WIND WMO_PRES WMO_AGENCY TRACK_TYPE DIST2LAND LANDFALL IFLAG USA_AGENCY USA_ATCF_ID USA_LAT USA_LON USA_RECORD USA_STATUS USA_WIND USA_PRES USA_SSHS USA_R34_NE USA_R34_SE USA_R34_SW USA_R34_NW USA_R50_NE USA_R50_SE USA_R50_SW USA_R50_NW USA_R64_NE USA_R64_SE USA_R64_SW USA_R64_NW USA_POCI USA_ROCI USA_RMW USA_EYE TOKYO_LAT TOKYO_LON TOKYO_GRADE TOKYO_WIND TOKYO_PRES TOKYO_R50_DIR TOKYO_R50_LONG TOKYO_R50_SHORT TOKYO_R30_DIR TOKYO_R30_LONG TOKYO_R30_SHORT TOKYO_LAND CMA_LAT CMA_LON CMA_CAT CMA_WIND CMA_PRES HKO_LAT HKO_LON HKO_CAT HKO_WIND HKO_PRES NEWDELHI_LAT NEWDELHI_LON NEWDELHI_GRADE NEWDELHI_WIND NEWDELHI_PRES NEWDELHI_CI NEWDELHI_DP NEWDELHI_POCI REUNION_LAT REUNION_LON REUNION_TYPE REUNION_WIND REUNION_PRES REUNION_TNUM REUNION_CI REUNION_RMW REUNION_R34_NE REUNION_R34_SE REUNION_R34_SW REUNION_R34_NW REUNION_R50_NE REUNION_R50_SE REUNION_R50_SW REUNION_R50_NW REUNION_R64_NE REUNION_R64_SE REUNION_R64_SW REUNION_R64_NW BOM_LAT BOM_LON BOM_TYPE BOM_WIND BOM_PRES BOM_TNUM BOM_CI BOM_RMW BOM_R34_NE BOM_R34_SE BOM_R34_SW BOM_R34_NW BOM_R50_NE BOM_R50_SE BOM_R50_SW BOM_R50_NW BOM_R64_NE BOM_R64_SE BOM_R64_SW BOM_R64_NW BOM_ROCI BOM_POCI BOM_EYE BOM_POS_METHOD BOM_PRES_METHOD NADI_LAT NADI_LON NADI_CAT NADI_WIND NADI_PRES WELLINGTON_LAT WELLINGTON_LON WELLINGTON_WIND WELLINGTON_PRES DS824_LAT DS824_LON DS824_STAGE DS824_WIND DS824_PRES TD9636_LAT TD9636_LON TD9636_STAGE TD9636_WIND TD9636_PRES TD9635_LAT TD9635_LON TD9635_WIND TD9635_PRES TD9635_ROCI NEUMANN_LAT NEUMANN_LON NEUMANN_CLASS NEUMANN_WIND NEUMANN_PRES MLC_LAT MLC_LON MLC_CLASS MLC_WIND MLC_PRES USA_GUST BOM_GUST BOM_GUST_PER REUNION_GUST REUNION_GUST_PER USA_SEAHGT USA_SEARAD_NE USA_SEARAD_SE USA_SEARAD_SW USA_SEARAD_NW STORM_SPEED STORM_DIR
1961144N17112 1961 39 WP MM NOT_NAMED 1961-05-24 00:00:00 NR 17.4000 112.300 main 246 246 ___O__________ -1 17.4000 112.300 TD 25 1002 3 199
1961144N17112 1961 39 WP MM NOT_NAMED 1961-05-24 03:00:00 NR 17.2600 112.250 main 253 245 ___P__________ -1 17.2600 112.250 TD 25 1002 3 197
1961144N17112 1961 39 WP MM NOT_NAMED 1961-05-24 06:00:00 NR 17.1000 112.200 main 261 261 ___O__________ -1 17.1000 112.200 TD 25 1002 4 195
1961144N17112 1961 39 WP MM NOT_NAMED 1961-05-24 09:00:00 NR 16.9075 112.150 main 277 270 ___P__________ -1 16.9075 112.150 TD 25 1002 4 193
1961144N17112 1961 39 WP MM NOT_NAMED 1961-05-24 12:00:00 NR 16.7000 112.100 main 287 287 ___O__________ -1 16.7000 112.100 TD 25 1002 4 193
1961144N17112 1961 39 WP MM NOT_NAMED 1961-05-24 15:00:00 NR 16.4925 112.050 main 305 298 ___P__________ -1 16.4925 112.050 TD 25 1002 4 193
1961144N17112 1961 39 WP MM NOT_NAMED 1961-05-24 18:00:00 NR 16.3000 112.000 main 316 309 ___O__________ -1 16.3000 112.000 TD 25 1003 4 197
1961144N17112 1961 39 WP MM NOT_NAMED 1961-05-24 21:00:00 NR 16.1425 111.935 main 327 327 ___P__________ -1 16.1425 111.935 TD 25 1003 9 114
1961144N17112 1961 39 WP MM NOT_NAMED 1961-05-25 00:00:00 TS 15.9333 112.867 main 410 410 O__O_____O____ jtwc_wp WP321961 15.8000 114.800 -1 16.0000 111.900 TD 25 1004 15.8000 114.800 TC 15 104
1961144N17112 1961 39 WP MM NOT_NAMED 1961-05-25 03:00:00 TS 15.7850 113.403 main 454 454 P__P_____P____ WP321961 15.7275 114.870 -1 15.8425 111.935 TD 25 1004 15.7275 114.870 TC 9 109
1961144N17112 1961 39 WP MM NOT_NAMED 1961-05-25 06:00:00 TS 15.6400 113.740 main 493 493 O__O_____O____ jtwc_wp WP321961 15.6000 114.900 -1 15.7000 112.000 TD 25 1004 15.6000 114.900 TC 6 123
1961144N17112 1961 39 WP MM NOT_NAMED 1961-05-25 09:00:00 TS 15.4592 113.924 main 516 505 P__P_____P____ WP321961 15.3925 114.865 -1 15.5925 112.042 TD 25 1004 15.3925 114.865 TC 4 0
1961144N17112 1961 39 WP MM NOT_NAMED 1961-05-25 12:00:00 TS 15.2231 113.762 main 505 492 O_OO_____O____ jtwc_wp WP321961 15.2000 114.800 -1 14.3000 112.100 0 1001 15.5000 112.100 TD 25 1004 15.2000 114.800 TC 4 216
1961144N17112 1961 39 WP MM NOT_NAMED 1961-05-25 15:00:00 TS 15.1125 113.664 main 492 482 P_PP_____P____ WP321961 15.1350 114.765 -1 14.4625 112.200 0 1000 15.3925 112.193 TD 25 1004 15.1350 114.765 TC 2 226
1961144N17112 1961 39 WP MM NOT_NAMED 1961-05-25 18:00:00 TS 15.0533 113.580 main 482 468 O_OO_____O____ jtwc_wp WP321961 15.1000 114.700 -1 14.6000 112.300 1 23 1000 15.3000 112.300 TD 25 1004 15.1000 114.700 TC 2 231
1961144N17112 1961 39 WP MM NOT_NAMED 1961-05-25 21:00:00 TS 14.9688 113.479 main 468 466 P_PP_____P____ WP321961 14.9700 114.557 -1 14.7000 112.400 1 23 1000 15.2350 112.400 TD 25 1004 14.9700 114.557 TC 2 231
1961144N17112 1961 39 WP MM NOT_NAMED 1961-05-26 00:00:00 TS 14.9500 113.450 main 468 458 O_OO_____O____ jtwc_wp WP321961 14.9000 114.400 -1 14.8000 112.500 1 23 1000 15.2000 112.500 TD 25 1004 14.9000 114.400 TC 1 328
1961144N17112 1961 39 WP MM NOT_NAMED 1961-05-26 03:00:00 TS 15.0437 113.446 main 458 458 P_PP_____P____ WP321961 15.0200 114.293 -1 14.9500 112.600 1 23 1000 15.1850 112.600 TD 25 1004 15.0200 114.293 TC 2 0
1961144N17112 1961 39 WP MM NOT_NAMED 1961-05-26 06:00:00 TS 15.1750 113.450 main 475 464 O_OO_____O____ jtwc_wp WP321961 15.2000 114.200 -1 15.1000 112.700 1 23 1000 15.2000 112.700 TD 25 1004 15.2000 114.200 TC 2 0
1961144N17112 1961 39 WP MM NOT_NAMED 1961-05-26 09:00:00 TS 15.2681 113.446 main 466 466 P_PP_____P____ WP321961 15.3075 114.092 -1 15.2075 112.800 1 23 1000 15.2500 112.800 TD 25 1004 15.3075 114.092 TC 2 8
1961144N17112 1961 39 WP MM NOT_NAMED 1961-05-26 12:00:00 TS 15.3500 113.450 main 479 479 O_OO_____O____ jtwc_wp WP321961 15.4000 114.000 -1 15.3000 112.900 1 23 1000 15.3000 112.900 TD 25 1004 15.4000 114.000 TC 2 0
1961144N17112 1961 39 WP MM NOT_NAMED 1961-05-26 15:00:00 TS 15.4175 113.471 main 479 479 P_PP_____P____ WP321961 15.4850 113.942 -1 15.4000 113.000 1 26 1000 15.3000 113.000 TD 27 1004 15.4850 113.942 TC 2 12
1961144N17112 1961 39 WP MM NOT_NAMED 1961-05-26 18:00:00 TS 15.5000 113.500 main 480 478 O_OO_____O____ jtwc_wp WP321961 15.6000 113.900 -1 15.5000 113.100 1 29 1000 15.3000 113.100 TD 30 1004 15.6000 113.900 TC 2 15
1961144N17112 1961 39 WP MM NOT_NAMED 1961-05-26 21:00:00 TS 15.6300 113.523 main 478 462 P_PP_____P____ WP321961 15.7925 113.850 -1 15.5925 113.193 1 29 1000 15.3425 113.200 TD 30 1004 15.7925 113.850 TC 3 7
1961144N17112 1961 39 WP MM NOT_NAMED 1961-05-27 00:00:00 TS 15.7750 113.550 main 469 462 O_OO_____O____ jtwc_wp WP321961 16.0000 113.800 -1 15.7000 113.300 1 29 1000 15.4000 113.300 TD 30 1004 16.0000 113.800 TC 3 14
1961144N17112 1961 39 WP MM NOT_NAMED 1961-05-27 03:00:00 TS 15.9037 113.589 main 462 454 P_PP_____P____ WP321961 16.1650 113.757 -1 15.8350 113.435 1 26 1001 15.4500 113.408 TD 27 1003 16.1650 113.757 TC 3 16
1961144N17112 1961 39 WP MM NOT_NAMED 1961-05-27 06:00:00 TS 16.0250 113.625 main 454 446 O_OO_____O____ jtwc_wp WP321961 16.3000 113.700 -1 16.0000 113.600 1 23 1002 15.5000 113.500 TD 25 1003 16.3000 113.700 TC 2 11
1961144N17112 1961 39 WP MM NOT_NAMED 1961-05-27 09:00:00 TS 16.1300 113.621 main 446 439 P_PP_____P____ WP321961 16.3925 113.578 -1 16.1925 113.778 1 23 1002 15.5425 113.550 TD 25 1002 16.3925 113.578 TC 2 0
1961144N17112 1961 39 WP MM NOT_NAMED 1961-05-27 12:00:00 TS 16.2500 113.650 main 439 432 O_OO_____O____ jtwc_wp WP321961 16.5000 113.500 -1 16.4000 114.000 1 23 1002 15.6000 113.600 TD 25 1002 16.5000 113.500 TC 3 27
1961144N17112 1961 39 WP MM NOT_NAMED 1961-05-27 15:00:00 TS 16.4175 113.777 main 440 434 P_PP_____P____ WP321961 16.6850 113.570 -1 16.6075 114.278 1 23 1002 15.6925 113.692 TD 25 1002 16.6850 113.570 TC 5 36
1961144N17112 1961 39 WP MM NOT_NAMED 1961-05-27 18:00:00 TS 16.6533 113.960 main 438 432 O_OO_____O____ jtwc_wp WP321961 16.9000 113.700 -1 16.8000 114.600 1 23 1002 15.8000 113.800 TD 25 1003 16.9000 113.700 TC 6 36
1961144N17112 1961 39 WP MM NOT_NAMED 1961-05-27 21:00:00 TS 16.8839 114.133 main 436 436 P_PP_____P____ WP321961 17.1000 113.785 -1 16.9425 114.943 1 26 1002 15.9025 113.902 TD 25 1003 17.1000 113.785 TC 6 44
1961144N17112 1961 39 WP MM NOT_NAMED 1961-05-28 00:00:00 TS 17.1091 114.418 main 454 454 O_OO_____O____ jtwc_wp WP321961 17.3000 113.900 -1 17.1000 115.300 1 29 1002 16.0000 114.000 TD 25 1004 17.3000 113.900 TC 9 54
1961144N17112 1961 39 WP MM NOT_NAMED 1961-05-28 03:00:00 TS 17.4025 114.869 main 479 479 P_P______P____ WP321961 17.5001 114.080 -1 17.3050 115.658 1 29 1002 TD 17.5001 114.080 TC 11 62
1961144N17112 1961 39 WP MM NOT_NAMED 1961-05-28 06:00:00 TS 17.6333 115.433 main 490 417 O_O______O____ jtwc_wp WP321961 17.7000 114.300 -1 17.6000 116.000 1 29 1002 17.7000 114.300 TC 15 66
1961144N17112 1961 39 WP MM NOT_NAMED 1961-05-28 09:00:00 TS 18.0125 116.322 main 417 401 __P___________ WP321961 -1 18.0125 116.322 1 29 1002 TC 14 52
1961144N17112 1961 39 WP MM NOT_NAMED 1961-05-28 12:00:00 TS 18.5000 116.600 main 403 396 __O___________ -1 18.5000 116.600 1 29 1002 11 25
1961144N17112 1961 39 WP MM NOT_NAMED 1961-05-28 15:00:00 TS 19.0149 116.815 main 401 378 __P___________ -1 19.0149 116.815 1 29 1002 11 21
1961144N17112 1961 39 WP MM NOT_NAMED 1961-05-28 18:00:00 TS 19.5000 117.000 main 378 351 __O___________ -1 19.5000 117.000 1 29 1002 9 23
1961144N17112 1961 39 WP MM NOT_NAMED 1961-05-28 21:00:00 TS 19.8650 117.200 main 343 315 __P___________ -1 19.8650 117.200 1 33 1002 8 28
1961144N17112 1961 39 WP MM NOT_NAMED 1961-05-29 00:00:00 TS 20.2000 117.400 main 315 281 __O___________ -1 20.2000 117.400 2 38 1002 8 27
1961144N17112 1961 39 WP MM NOT_NAMED 1961-05-29 03:00:00 TS 20.5925 117.600 main 281 251 __P___________ -1 20.5925 117.600 2 38 1002 9 25
1961144N17112 1961 39 WP MM NOT_NAMED 1961-05-29 06:00:00 TS 21.0000 117.800 main 251 229 __O___________ -1 21.0000 117.800 2 38 1002 9 24
1961144N17112 1961 39 WP MM NOT_NAMED 1961-05-29 09:00:00 TS 21.3698 117.971 main 227 212 __P___________ -1 21.3698 117.971 2 38 1002 9 25
1961144N17112 1961 39 WP MM NOT_NAMED 1961-05-29 12:00:00 TS 21.8000 118.200 main 213 172 __O___________ -1 21.8000 118.200 2 38 1002 12 28
1961144N17112 1961 39 WP MM NOT_NAMED 1961-05-29 15:00:00 TS 22.4000 118.562 main 170 113 __P___________ -1 22.4000 118.562 2 33 1002 14 32
1961144N17112 1961 39 WP MM NOT_NAMED 1961-05-29 18:00:00 TS 23.0000 119.000 main 113 74 __O___________ -1 23.0000 119.000 1 29 1003 13 38
1961144N17112 1961 39 WP MM NOT_NAMED 1961-05-29 21:00:00 TS 23.4502 119.450 main 72 30 __P___________ -1 23.4502 119.450 1 26 1004 12 46
1961144N17112 1961 39 WP MM NOT_NAMED 1961-05-30 00:00:00 TS 23.8000 119.900 main 30 __O___________ -1 23.8000 119.900 1 23 1005 11 50

デジタル台風データ・検索

IBTrACS Databaseについて

本データベースは、米国NOAAが公開する1842年以降の世界の熱帯低気圧のベストトラックデータアーカイブInternational Best Track Archive for Climate Stewardship (IBTrACS)を、ウェブで閲覧しやすい形式に変換したものです。

最終更新日:2021-10-08